createdAt,value
2018-08-25T00:01:38.782Z,100859.05
2018-08-25T00:04:07.944Z,100851.14
2018-08-25T00:06:37.013Z,100854.41
2018-08-25T00:09:08.972Z,100855.89
2018-08-25T00:11:38.078Z,100850.35
2018-08-25T00:14:07.248Z,100843.69
2018-08-25T00:16:36.871Z,100837.44
2018-08-25T00:19:06.194Z,100838.81
2018-08-25T00:21:35.574Z,100833.72
2018-08-25T00:24:04.768Z,100826.34
2018-08-25T00:26:33.861Z,100814.60
2018-08-25T00:29:02.988Z,100805.76
2018-08-25T00:31:32.081Z,100793.83
2018-08-25T00:34:01.129Z,100780.89
2018-08-25T00:36:30.253Z,100788.83
2018-08-25T00:38:59.337Z,100789.14
2018-08-25T00:41:28.503Z,100793.83
2018-08-25T00:43:57.663Z,100799.34
2018-08-25T00:46:26.785Z,100796.86
2018-08-25T00:48:55.869Z,100806.22
2018-08-25T00:51:25.087Z,100809.87
2018-08-25T00:53:54.286Z,100793.97
2018-08-25T00:56:23.410Z,100802.38
2018-08-25T00:58:52.555Z,100800.61
2018-08-25T01:01:21.687Z,100780.73
2018-08-25T01:03:50.861Z,100774.79
2018-08-25T01:06:20.163Z,100780.40
2018-08-25T01:08:49.292Z,100784.61
2018-08-25T01:11:19.408Z,100787.20
2018-08-25T01:13:48.506Z,100783.75
2018-08-25T01:16:18.012Z,100775.66
2018-08-25T01:18:47.170Z,100776.41
2018-08-25T01:21:16.265Z,100775.81
2018-08-25T01:23:45.372Z,100766.61
2018-08-25T01:26:14.513Z,100762.27
2018-08-25T01:28:43.611Z,100756.52
2018-08-25T01:31:12.715Z,100752.78
2018-08-25T01:33:41.831Z,100748.42
2018-08-25T01:36:10.926Z,100746.84
2018-08-25T01:38:39.972Z,100744.25
2018-08-25T01:41:09.095Z,100741.84
2018-08-25T01:43:38.282Z,100736.80
2018-08-25T01:46:07.403Z,100738.94
2018-08-25T01:48:36.520Z,100733.69
2018-08-25T01:51:05.600Z,100721.16
2018-08-25T01:53:34.727Z,100718.91
2018-08-25T01:56:03.860Z,100723.60
2018-08-25T01:58:32.974Z,100723.11
2018-08-25T02:01:02.096Z,100727.69
2018-08-25T02:03:31.534Z,100733.45
2018-08-25T02:06:02.026Z,100733.09
2018-08-25T02:08:31.137Z,100746.08
2018-08-25T02:11:00.261Z,100749.33
2018-08-25T02:13:29.361Z,100761.72
2018-08-25T02:15:58.579Z,100754.19
2018-08-25T02:18:27.711Z,100737.34
2018-08-25T02:20:56.858Z,100717.61
2018-08-25T02:23:26.144Z,100706.13
2018-08-25T02:25:55.314Z,100713.18
2018-08-25T02:28:24.391Z,100724.36
2018-08-25T02:30:53.559Z,100726.90
2018-08-25T02:33:22.651Z,100729.84
2018-08-25T02:35:51.790Z,100721.27
2018-08-25T02:38:21.003Z,100718.05
2018-08-25T02:40:50.189Z,100724.86
2018-08-25T02:43:19.287Z,100725.86
2018-08-25T02:45:50.590Z,100721.02
2018-08-25T02:48:19.664Z,100720.31
2018-08-25T02:50:48.751Z,100717.07
2018-08-25T02:53:17.835Z,100719.88
2018-08-25T02:55:46.911Z,100711.27
2018-08-25T02:58:15.999Z,100701.53
2018-08-25T03:00:45.109Z,100711.63
2018-08-25T03:03:14.210Z,100709.21
2018-08-25T03:05:43.343Z,100701.83
2018-08-25T03:08:12.439Z,100706.52
2018-08-25T03:10:41.577Z,100707.63
2018-08-25T03:13:10.633Z,100718.06
2018-08-25T03:15:39.739Z,100722.19
2018-08-25T03:18:08.863Z,100728.28
2018-08-25T03:20:37.932Z,100735.89
2018-08-25T03:23:07.153Z,100712.70
2018-08-25T03:25:36.260Z,100706.16
2018-08-25T03:28:05.463Z,100700.84
2018-08-25T03:30:34.579Z,100699.52
2018-08-25T03:33:03.701Z,100693.44
2018-08-25T03:35:32.778Z,100703.97
2018-08-25T03:38:01.901Z,100711.67
2018-08-25T03:40:31.002Z,100715.66
2018-08-25T03:43:00.087Z,100719.28
2018-08-25T03:45:29.183Z,100722.34
2018-08-25T03:47:58.310Z,100730.45
2018-08-25T03:50:27.403Z,100734.27
2018-08-25T03:52:56.506Z,100740.22
2018-08-25T03:55:25.637Z,100735.30
2018-08-25T03:57:55.825Z,100737.53
2018-08-25T04:00:24.755Z,100740.80
2018-08-25T04:02:53.636Z,100744.74
2018-08-25T04:05:22.533Z,100752.58
2018-08-25T04:07:51.507Z,100753.97
2018-08-25T04:10:20.407Z,100763.25
2018-08-25T04:12:49.463Z,100766.81
2018-08-25T04:15:18.507Z,100770.80
2018-08-25T04:17:47.448Z,100773.69
2018-08-25T04:20:16.453Z,100786.96
2018-08-25T04:22:46.488Z,100788.78
2018-08-25T04:25:15.569Z,100782.66
2018-08-25T04:27:44.479Z,100777.80
2018-08-25T04:30:13.439Z,100773.98
2018-08-25T04:32:42.432Z,100779.94
2018-08-25T04:35:11.356Z,100791.77
2018-08-25T04:37:40.248Z,100796.47
2018-08-25T04:40:14.779Z,100802.02
2018-08-25T04:42:45.579Z,100804.55
2018-08-25T04:45:14.488Z,100808.44
2018-08-25T04:47:43.488Z,100807.31
2018-08-25T04:50:12.389Z,100810.73
2018-08-25T04:52:41.321Z,100810.67
2018-08-25T04:55:10.249Z,100810.47
2018-08-25T04:57:39.134Z,100806.03
2018-08-25T05:00:08.120Z,100818.16
2018-08-25T05:02:37.039Z,100825.89
2018-08-25T05:05:05.980Z,100827.69
2018-08-25T05:07:35.029Z,100828.35
2018-08-25T05:10:04.008Z,100842.00
2018-08-25T05:12:33.001Z,100846.14
2018-08-25T05:15:01.911Z,100845.09
2018-08-25T05:17:32.988Z,100831.42
2018-08-25T05:20:01.937Z,100827.27
2018-08-25T05:22:30.824Z,100824.83
2018-08-25T05:24:59.741Z,100824.58
2018-08-25T05:27:28.666Z,100830.05
2018-08-25T05:29:57.571Z,100834.75
2018-08-25T05:32:26.479Z,100833.31
2018-08-25T05:34:55.403Z,100833.08
2018-08-25T05:37:24.311Z,100839.82
2018-08-25T05:39:53.261Z,100838.11
2018-08-25T05:42:22.289Z,100839.01
2018-08-25T05:44:51.201Z,100837.30
2018-08-25T05:47:20.517Z,100842.66
2018-08-25T05:49:49.478Z,100842.69
2018-08-25T05:52:18.356Z,100843.78
2018-08-25T05:54:47.308Z,100842.06
2018-08-25T05:57:16.307Z,100840.33
2018-08-25T05:59:45.262Z,100838.95
2018-08-25T06:02:14.239Z,100848.22
2018-08-25T06:04:43.212Z,100853.58
2018-08-25T06:07:12.156Z,100851.50
2018-08-25T06:09:41.200Z,100852.26
2018-08-25T06:12:10.120Z,100862.52
2018-08-25T06:14:39.140Z,100859.06
2018-08-25T06:17:08.264Z,100860.97
2018-08-25T06:19:37.235Z,100860.58
2018-08-25T06:22:07.164Z,100871.17
2018-08-25T06:24:36.124Z,100875.58
2018-08-25T06:27:05.322Z,100884.38
2018-08-25T06:29:34.298Z,100880.80
2018-08-25T06:32:03.267Z,100886.44
2018-08-25T06:34:32.208Z,100886.07
2018-08-25T06:37:01.734Z,100883.15
2018-08-25T06:39:30.649Z,100884.95
2018-08-25T06:41:59.619Z,100883.97
2018-08-25T06:44:28.546Z,100870.38
2018-08-25T06:46:57.523Z,100883.08
2018-08-25T06:49:26.536Z,100888.34
2018-08-25T06:51:55.500Z,100895.48
2018-08-25T06:54:24.433Z,100886.33
2018-08-25T06:56:53.396Z,100881.63
2018-08-25T06:59:22.385Z,100889.02
2018-08-25T07:01:51.321Z,100885.45
2018-08-25T07:04:20.269Z,100884.91
2018-08-25T07:06:50.283Z,100889.31
2018-08-25T07:09:19.250Z,100891.34
2018-08-25T07:11:48.116Z,100886.17
2018-08-25T07:14:17.029Z,100895.08
2018-08-25T07:16:46.046Z,100891.41
2018-08-25T07:19:14.956Z,100898.66
2018-08-25T07:21:43.880Z,100899.13
2018-08-25T07:24:12.816Z,100890.80
2018-08-25T07:26:41.714Z,100898.56
2018-08-25T07:29:10.634Z,100896.30
2018-08-25T07:31:39.550Z,100903.14
2018-08-25T07:34:08.504Z,100907.31
2018-08-25T07:36:37.392Z,100911.22
2018-08-25T07:39:09.459Z,100912.50
2018-08-25T07:41:38.448Z,100917.92
2018-08-25T07:44:07.379Z,100915.05
2018-08-25T07:46:36.388Z,100918.36
2018-08-25T07:49:05.312Z,100923.41
2018-08-25T07:51:34.264Z,100923.48
2018-08-25T07:54:04.521Z,100932.48
2018-08-25T07:56:33.589Z,100929.60
2018-08-25T07:59:02.681Z,100930.34
2018-08-25T08:01:31.750Z,100935.29
2018-08-25T08:04:00.743Z,100939.52
2018-08-25T08:06:30.772Z,100937.69
2018-08-25T08:09:02.010Z,100946.80
2018-08-25T08:11:31.192Z,100947.34
2018-08-25T08:14:00.202Z,100950.72
2018-08-25T08:16:30.186Z,100958.38
2018-08-25T08:18:59.172Z,100956.47
2018-08-25T08:21:28.093Z,100957.78
2018-08-25T08:23:56.980Z,100961.92
2018-08-25T08:26:26.014Z,100973.86
2018-08-25T08:28:54.932Z,100965.48
2018-08-25T08:31:23.857Z,100962.90
2018-08-25T08:33:52.784Z,100968.84
2018-08-25T08:36:21.890Z,100981.36
2018-08-25T08:38:50.817Z,100996.48
2018-08-25T08:41:19.744Z,101008.64
2018-08-25T08:43:48.725Z,101000.77
2018-08-25T08:46:23.017Z,101003.30
2018-08-25T08:48:52.081Z,101013.16
2018-08-25T08:51:21.051Z,101022.97
2018-08-25T08:53:50.032Z,101023.11
2018-08-25T08:56:18.976Z,101026.05
2018-08-25T08:58:47.910Z,101026.38
2018-08-25T09:01:16.914Z,101021.91
2018-08-25T09:03:45.829Z,101016.47
2018-08-25T09:06:14.764Z,101023.68
2018-08-25T09:08:43.696Z,101023.34
2018-08-25T09:11:12.681Z,101027.23
2018-08-25T09:13:41.552Z,101034.94
2018-08-25T09:16:10.472Z,101033.49
2018-08-25T09:18:41.224Z,101032.04
2018-08-25T09:21:10.213Z,101035.30
2018-08-25T09:23:39.140Z,101038.69
2018-08-25T09:26:08.108Z,101035.02
2018-08-25T09:28:37.065Z,101036.44
2018-08-25T09:31:06.110Z,101032.34
2018-08-25T09:33:35.072Z,101037.05
2018-08-25T09:36:04.100Z,101040.95
2018-08-25T09:38:36.992Z,101033.00
2018-08-25T09:41:05.907Z,101037.05
2018-08-25T09:43:34.937Z,101035.41
2018-08-25T09:46:03.962Z,101043.78
2018-08-25T09:48:32.882Z,101041.84
2018-08-25T09:51:01.852Z,101041.97
2018-08-25T09:53:30.844Z,101037.27
2018-08-25T09:55:59.773Z,101034.17
2018-08-25T09:58:28.664Z,101029.65
2018-08-25T10:01:03.078Z,101029.97
2018-08-25T10:03:32.112Z,101029.97
2018-08-25T10:06:01.162Z,101035.66
2018-08-25T10:08:30.244Z,101045.74
2018-08-25T10:10:59.314Z,101046.52
2018-08-25T10:13:28.169Z,101059.12
2018-08-25T10:15:57.177Z,101053.57
2018-08-25T10:18:26.194Z,101056.78
2018-08-25T10:20:57.314Z,101064.22
2018-08-25T10:23:26.615Z,101066.25
2018-08-25T10:25:55.993Z,101061.15
2018-08-25T10:28:26.392Z,101071.94
2018-08-25T10:30:55.522Z,101031.29
2018-08-25T10:33:24.446Z,101081.09
2018-08-25T10:35:53.417Z,101089.78
2018-08-25T10:38:22.432Z,101100.75
2018-08-25T10:40:51.449Z,101110.67
2018-08-25T10:43:20.401Z,101118.20
2018-08-25T10:45:49.394Z,101121.05
2018-08-25T10:48:18.300Z,101122.35
2018-08-25T10:50:47.244Z,101117.48
2018-08-25T10:53:16.206Z,101123.33
2018-08-25T10:55:45.077Z,101122.34
2018-08-25T10:58:14.136Z,101126.75
2018-08-25T11:00:43.269Z,101121.98
2018-08-25T11:03:12.070Z,101127.42
2018-08-25T11:05:40.981Z,101125.69
2018-08-25T11:08:15.706Z,101124.23
2018-08-25T11:10:44.725Z,101132.44
2018-08-25T11:13:13.720Z,101128.95
2018-08-25T11:15:43.741Z,101129.06
2018-08-25T11:18:12.748Z,101128.75
2018-08-25T11:20:41.742Z,101141.13
2018-08-25T11:23:10.744Z,101139.47
2018-08-25T11:25:39.723Z,101149.14
2018-08-25T11:28:08.740Z,101145.08
2018-08-25T11:30:37.753Z,101147.12
2018-08-25T11:33:07.753Z,101148.93
2018-08-25T11:35:36.711Z,101150.20
2018-08-25T11:38:05.871Z,101149.75
2018-08-25T11:40:34.887Z,101147.91
2018-08-25T11:43:03.839Z,101149.30
2018-08-25T11:45:33.823Z,101147.97
2018-08-25T11:48:02.896Z,101153.92
2018-08-25T11:50:31.801Z,101149.81
2018-08-25T11:53:00.827Z,101165.05
2018-08-25T11:55:29.796Z,101156.89
2018-08-25T11:57:58.672Z,101155.13
2018-08-25T12:00:27.744Z,101157.05
2018-08-25T12:02:56.658Z,101158.40
2018-08-25T12:05:25.643Z,101154.09
2018-08-25T12:07:54.715Z,101156.34
2018-08-25T12:10:23.770Z,101153.13
2018-08-25T12:12:52.859Z,101152.56
2018-08-25T12:15:22.265Z,101161.12
2018-08-25T12:17:51.317Z,101160.00
2018-08-25T12:20:20.405Z,101161.30
2018-08-25T12:22:49.441Z,101165.08
2018-08-25T12:25:18.495Z,101193.97
2018-08-25T12:27:47.568Z,101198.22
2018-08-25T12:30:16.463Z,101201.09
2018-08-25T12:32:45.393Z,101203.00
2018-08-25T12:35:14.345Z,101198.78
2018-08-25T12:37:43.236Z,101190.97
2018-08-25T12:40:12.149Z,101199.60
2018-08-25T12:42:41.194Z,101203.55
2018-08-25T12:45:10.274Z,101210.64
2018-08-25T12:47:39.364Z,101212.06
2018-08-25T12:50:08.261Z,101210.02
2018-08-25T12:52:37.457Z,101216.08
2018-08-25T12:55:06.877Z,101213.80
2018-08-25T12:57:35.965Z,101210.98
2018-08-25T13:00:05.475Z,101206.19
2018-08-25T13:02:34.444Z,101213.70
2018-08-25T13:05:03.557Z,101227.28
2018-08-25T13:07:32.732Z,101228.64
2018-08-25T13:10:01.831Z,101218.46
2018-08-25T13:12:31.509Z,101224.16
2018-08-25T13:15:00.582Z,101217.06
2018-08-25T13:17:29.597Z,101214.30
2018-08-25T13:19:58.521Z,101223.55
2018-08-25T13:22:29.301Z,101217.59
2018-08-25T13:24:58.319Z,101226.62
2018-08-25T13:27:27.194Z,101225.16
2018-08-25T13:29:56.337Z,101230.37
2018-08-25T13:32:25.333Z,101223.34
2018-08-25T13:34:54.479Z,101228.42
2018-08-25T13:37:23.908Z,101225.61
2018-08-25T13:39:52.840Z,101235.34
2018-08-25T13:42:21.830Z,101252.12
2018-08-25T13:44:51.344Z,101260.28
2018-08-25T13:47:22.044Z,101262.39
2018-08-25T13:49:51.571Z,101261.37
2018-08-25T13:52:20.867Z,101264.37
2018-08-25T13:54:50.027Z,101268.13
2018-08-25T13:57:18.943Z,101268.00
2018-08-25T13:59:48.101Z,101268.96
2018-08-25T14:02:17.247Z,101273.97
2018-08-25T14:04:46.165Z,101268.00
2018-08-25T14:07:15.323Z,101265.78
2018-08-25T14:09:44.337Z,101273.09
2018-08-25T14:12:13.254Z,101277.61
2018-08-25T14:14:42.209Z,101279.00
2018-08-25T14:17:11.878Z,101277.71
2018-08-25T14:19:41.103Z,101285.27
2018-08-25T14:22:11.629Z,101289.20
2018-08-25T14:24:42.619Z,101285.25
2018-08-25T14:27:11.529Z,101297.68
2018-08-25T14:29:41.418Z,101301.27
2018-08-25T14:32:11.364Z,101305.06
2018-08-25T14:34:40.232Z,101322.33
2018-08-25T14:37:09.134Z,101313.73
2018-08-25T14:39:38.969Z,101311.91
2018-08-25T14:42:08.152Z,101311.33
2018-08-25T14:44:37.078Z,101309.03
2018-08-25T14:47:06.267Z,101308.89
2018-08-25T14:49:35.507Z,101299.23
2018-08-25T14:52:04.455Z,101293.12
2018-08-25T14:54:34.431Z,101296.36
2018-08-25T14:57:04.203Z,101304.28
2018-08-25T14:59:33.114Z,101305.46
2018-08-25T15:02:02.012Z,101316.02
2018-08-25T15:04:30.996Z,101323.30
2018-08-25T15:07:00.631Z,101316.91
2018-08-25T15:09:29.832Z,101313.81
2018-08-25T15:11:59.086Z,101317.02
2018-08-25T15:14:30.816Z,101316.11
2018-08-25T15:16:59.968Z,101317.76
2018-08-25T15:19:29.160Z,101316.53
2018-08-25T15:21:58.134Z,101312.16
2018-08-25T15:24:28.179Z,101319.72
2018-08-25T15:26:57.173Z,101321.33
2018-08-25T15:29:26.434Z,101324.66
2018-08-25T15:31:56.008Z,101331.28
2018-08-25T15:34:25.220Z,101329.59
2018-08-25T15:36:54.144Z,101328.29
2018-08-25T15:39:23.048Z,101327.67
2018-08-25T15:41:52.063Z,101332.73
2018-08-25T15:44:21.083Z,101338.62
2018-08-25T15:46:49.956Z,101328.70
2018-08-25T15:49:19.941Z,101339.58
2018-08-25T15:51:49.560Z,101333.71
2018-08-25T15:54:18.752Z,101331.76
2018-08-25T15:56:48.476Z,101329.95
2018-08-25T15:59:18.577Z,101341.83
2018-08-25T16:01:47.632Z,101339.98
2018-08-25T16:04:16.588Z,101333.47
2018-08-25T16:06:45.781Z,101338.94
2018-08-25T16:09:15.655Z,101348.37
2018-08-25T16:11:44.577Z,101339.59
2018-08-25T16:14:14.031Z,101347.72
2018-08-25T16:16:43.819Z,101345.01
2018-08-25T16:19:12.770Z,101339.83
2018-08-25T16:21:42.701Z,101342.80
2018-08-25T16:24:11.743Z,101344.20
2018-08-25T16:26:40.947Z,101346.10
2018-08-25T16:29:09.812Z,101351.52
2018-08-25T16:31:39.093Z,101354.53
2018-08-25T16:34:08.300Z,101354.12
2018-08-25T16:36:37.275Z,101344.30
2018-08-25T16:39:07.356Z,101351.83
2018-08-25T16:41:37.191Z,101348.75
2018-08-25T16:44:08.683Z,101347.05
2018-08-25T16:46:37.916Z,101348.16
2018-08-25T16:49:07.583Z,101339.13
2018-08-25T16:51:38.015Z,101348.91
2018-08-25T16:54:06.981Z,101339.17
2018-08-25T16:56:36.195Z,101356.11
2018-08-25T16:59:06.916Z,101351.93
2018-08-25T17:01:35.910Z,101361.03
2018-08-25T17:04:04.896Z,101358.56
2018-08-25T17:06:34.223Z,101349.65
2018-08-25T17:09:05.144Z,101354.66
2018-08-25T17:11:34.165Z,101357.47
2018-08-25T17:14:03.068Z,101349.48
2018-08-25T17:16:32.299Z,101362.81
2018-08-25T17:19:03.915Z,101361.70
2018-08-25T17:21:33.203Z,101360.28
2018-08-25T17:24:03.242Z,101366.42
2018-08-25T17:26:32.176Z,101378.69
2018-08-25T17:29:02.103Z,101370.22
2018-08-25T17:31:32.688Z,101358.69
2018-08-25T17:34:01.928Z,101362.95
2018-08-25T17:36:31.207Z,101367.73
2018-08-25T17:39:00.242Z,101379.66
2018-08-25T17:41:29.584Z,101378.06
2018-08-25T17:43:58.808Z,101376.35
2018-08-25T17:46:28.168Z,101375.56
2018-08-25T17:48:58.268Z,101382.89
2018-08-25T17:51:27.921Z,101381.47
2018-08-25T17:53:57.986Z,101383.22
2018-08-25T17:56:27.334Z,101385.75
2018-08-25T17:58:56.676Z,101388.45
2018-08-25T18:01:26.193Z,101385.85
2018-08-25T18:03:55.483Z,101391.25
2018-08-25T18:06:24.361Z,101389.31
2018-08-25T18:08:53.627Z,101399.11
2018-08-25T18:11:22.579Z,101396.86
2018-08-25T18:13:51.885Z,101398.52
2018-08-25T18:16:21.383Z,101395.41
2018-08-25T18:18:50.654Z,101404.88
2018-08-25T18:21:19.809Z,101412.50
2018-08-25T18:23:48.880Z,101419.26
2018-08-25T18:26:18.014Z,101421.77
2018-08-25T18:28:48.514Z,101431.75
2018-08-25T18:31:17.865Z,101445.45
2018-08-25T18:33:47.079Z,101461.93
2018-08-25T18:36:16.286Z,101465.80
2018-08-25T18:38:45.546Z,101460.45
2018-08-25T18:41:14.963Z,101463.64
2018-08-25T18:43:44.467Z,101465.45
2018-08-25T18:46:13.995Z,101472.34
2018-08-25T18:48:43.027Z,101470.13
2018-08-25T18:51:12.937Z,101465.17
2018-08-25T18:53:42.222Z,101470.77
2018-08-25T18:56:11.318Z,101474.92
2018-08-25T18:58:41.208Z,101478.97
2018-08-25T19:01:11.287Z,101474.42
2018-08-25T19:03:41.633Z,101481.39
2018-08-25T19:06:11.004Z,101478.69
2018-08-25T19:08:40.024Z,101481.00
2018-08-25T19:11:09.022Z,101476.94
2018-08-25T19:13:44.262Z,101477.64
2018-08-25T19:16:13.856Z,101481.14
2018-08-25T19:18:42.902Z,101481.20
2018-08-25T19:21:12.197Z,101480.19
2018-08-25T19:23:41.877Z,101492.34
2018-08-25T19:26:11.143Z,101493.48
2018-08-25T19:28:40.626Z,101504.52
2018-08-25T19:31:10.350Z,101497.94
2018-08-25T19:33:39.564Z,101501.50
2018-08-25T19:36:08.792Z,101505.18
2018-08-25T19:38:38.366Z,101504.02
2018-08-25T19:41:08.111Z,101509.60
2018-08-25T19:43:37.404Z,101509.55
2018-08-25T19:46:06.997Z,101514.58
2018-08-25T19:48:36.731Z,101516.51
2018-08-25T19:51:07.350Z,101518.09
2018-08-25T19:53:36.658Z,101516.44
2018-08-25T19:56:06.025Z,101514.42
2018-08-25T19:58:35.094Z,101510.58
2018-08-25T20:01:04.706Z,101512.21
2018-08-25T20:03:33.978Z,101512.21
2018-08-25T20:06:03.076Z,101514.33
2018-08-25T20:08:31.982Z,101514.05
2018-08-25T20:11:01.404Z,101519.05
2018-08-25T20:13:30.686Z,101520.05
2018-08-25T20:15:59.904Z,101527.73
2018-08-25T20:18:29.460Z,101529.68
2018-08-25T20:20:58.765Z,101531.98
2018-08-25T20:23:27.723Z,101526.20
2018-08-25T20:25:57.168Z,101533.55
2018-08-25T20:28:26.168Z,101535.57
2018-08-25T20:30:56.388Z,101535.75
2018-08-25T20:33:25.595Z,101540.38
2018-08-25T20:35:55.015Z,101538.94
2018-08-25T20:38:24.273Z,101539.91
2018-08-25T20:40:53.621Z,101544.91
2018-08-25T20:43:22.612Z,101545.88
2018-08-25T20:45:51.960Z,101543.47
2018-08-25T20:48:21.069Z,101540.50
2018-08-25T20:50:50.188Z,101544.25
2018-08-25T20:53:19.241Z,101541.47
2018-08-25T20:55:48.536Z,101538.77
2018-08-25T20:58:17.499Z,101540.30
2018-08-25T21:00:46.511Z,101539.84
2018-08-25T21:03:15.489Z,101537.23
2018-08-25T21:05:45.509Z,101545.34
2018-08-25T21:08:14.543Z,101548.48
2018-08-25T21:10:43.492Z,101547.88
2018-08-25T21:13:12.545Z,101547.62
2018-08-25T21:15:41.595Z,101548.45
2018-08-25T21:18:10.561Z,101547.62
2018-08-25T21:20:40.457Z,101545.90
2018-08-25T21:23:09.635Z,101545.73
2018-08-25T21:25:38.652Z,101545.47
2018-08-25T21:28:07.797Z,101546.84
2018-08-25T21:30:36.785Z,101545.13
2018-08-25T21:33:05.808Z,101544.14
2018-08-25T21:35:35.159Z,101541.39
2018-08-25T21:38:04.050Z,101547.48
2018-08-25T21:40:33.016Z,101553.25
2018-08-25T21:43:01.915Z,101549.52
2018-08-25T21:45:30.905Z,101554.34
2018-08-25T21:47:59.818Z,101548.66
2018-08-25T21:50:28.824Z,101551.06
2018-08-25T21:52:57.787Z,101553.97
2018-08-25T21:55:26.799Z,101558.19
2018-08-25T21:57:55.815Z,101554.63
2018-08-25T22:00:24.804Z,101555.20
2018-08-25T22:02:59.302Z,101556.64
2018-08-25T22:05:33.820Z,101556.75
2018-08-25T22:08:02.776Z,101559.45
2018-08-25T22:10:31.712Z,101565.42
2018-08-25T22:13:00.632Z,101563.02
2018-08-25T22:15:29.539Z,101566.41
2018-08-25T22:17:58.516Z,101563.13
2018-08-25T22:20:27.410Z,101565.34
2018-08-25T22:22:56.335Z,101569.88
2018-08-25T22:25:25.275Z,101569.68
2018-08-25T22:27:54.439Z,101567.18
2018-08-25T22:30:23.404Z,101575.42
2018-08-25T22:32:52.400Z,101569.45
2018-08-25T22:35:21.356Z,101575.08
2018-08-25T22:37:50.269Z,101568.13
2018-08-25T22:40:19.397Z,101574.20
2018-08-25T22:42:48.379Z,101572.23
2018-08-25T22:45:17.343Z,101575.63
2018-08-25T22:47:46.321Z,101579.75
2018-08-25T22:50:15.196Z,101569.58
2018-08-25T22:52:50.716Z,101573.17
2018-08-25T22:55:20.927Z,101578.50
2018-08-25T22:57:50.153Z,101578.58
2018-08-25T23:00:19.580Z,101581.94
2018-08-25T23:02:48.467Z,101566.92
2018-08-25T23:05:17.419Z,101582.87
2018-08-25T23:07:46.277Z,101582.95
2018-08-25T23:10:15.211Z,101581.89
2018-08-25T23:12:44.213Z,101579.27
2018-08-25T23:15:13.093Z,101585.20
2018-08-25T23:17:41.987Z,101586.75
2018-08-25T23:20:10.922Z,101583.72
2018-08-25T23:22:39.835Z,101583.89
2018-08-25T23:25:08.933Z,101581.15
2018-08-25T23:27:37.805Z,101581.52
2018-08-25T23:30:06.783Z,101583.81
2018-08-25T23:32:36.965Z,101583.03
2018-08-25T23:35:06.774Z,101579.47
2018-08-25T23:37:35.663Z,101583.98
2018-08-25T23:40:04.599Z,101586.26
2018-08-25T23:42:33.487Z,101578.29
2018-08-25T23:45:02.477Z,101581.52
2018-08-25T23:50:16.505Z,101579.55
2018-08-25T23:52:46.809Z,101584.83
2018-08-25T23:55:16.107Z,101583.92
2018-08-25T23:57:46.072Z,101577.08
